Time;durP1;ratioP1;P1;durP2;ratioP2;P2;SDS_P1;SDS_P2;PMS_P1;PMS_P2;Temp;Humidity;BMP_temperature;BMP_pressure;BME280_temperature;BME280_humidity;BME280_pressure;Samples;Min_cycle;Max_cycle;Signal;HPM_P1;HPM_P2
2023/01/28 00:02:23;;;;;;;4.05;3.30;;;;;;;;;;5039341;28;20029;-85
2023/01/28 00:04:49;;;;;;;3.65;2.35;;;;;;;;;;5044657;28;20518;-84
2023/01/28 00:07:14;;;;;;;3.88;2.88;;;;;;;;;;5042339;28;20033;-87
2023/01/28 00:09:39;;;;;;;5.47;2.42;;;;;;;;;;5017275;28;20462;-87
2023/01/28 00:12:05;;;;;;;3.05;2.53;;;;;;;;;;5037440;28;21026;-86
2023/01/28 00:14:30;;;;;;;3.17;2.28;;;;;;;;;;5040048;28;20033;-85
2023/01/28 00:16:56;;;;;;;3.72;2.50;;;;;;;;;;5021031;28;20476;-87
2023/01/28 00:19:22;;;;;;;4.07;2.58;;;;;;;;;;5038523;28;20040;-85
2023/01/28 00:21:47;;;;;;;11.18;2.55;;;;;;;;;;5030562;28;20080;-84
2023/01/28 00:24:12;;;;;;;4.38;2.35;;;;;;;;;;5047451;28;20072;-88
2023/01/28 00:26:38;;;;;;;4.40;2.40;;;;;;;;;;5045233;28;20422;-86
2023/01/28 00:29:03;;;;;;;4.00;3.03;;;;;;;;;;5045538;28;20036;-86
2023/01/28 00:31:29;;;;;;;3.15;2.53;;;;;;;;;;5044413;28;20451;-87
2023/01/28 00:33:55;;;;;;;7.30;3.22;;;;;;;;;;5043220;28;20239;-85
2023/01/28 00:36:23;;;;;;;4.25;2.40;;;;;;;;;;5045538;28;20036;-87
2023/01/28 00:38:58;;;;;;;3.67;2.55;;;;;;;;;;5043547;28;20064;-86
2023/01/28 00:41:27;;;;;;;4.78;2.95;;;;;;;;;;5046849;28;20029;-86
2023/01/28 00:43:53;;;;;;;2.95;2.10;;;;;;;;;;5021688;28;20025;-89
2023/01/28 00:46:20;;;;;;;3.92;2.63;;;;;;;;;;5043432;28;20105;-87
2023/01/28 00:48:46;;;;;;;3.90;2.47;;;;;;;;;;5040724;28;20028;-86
2023/01/28 00:51:15;;;;;;;4.97;2.38;;;;;;;;;;5046301;28;20024;-86
2023/01/28 00:53:40;;;;;;;6.13;2.97;;;;;;;;;;5047746;28;20028;-87
2023/01/28 00:56:07;;;;;;;3.42;2.65;;;;;;;;;;5033519;28;20039;-87
2023/01/28 00:58:33;;;;;;;3.72;2.08;;;;;;;;;;5050810;28;20096;-85
2023/01/28 01:01:13;;;;;;;3.33;2.67;;;;;;;;;;5044099;28;20028;-86
2023/01/28 01:03:38;;;;;;;3.40;2.70;;;;;;;;;;5032595;28;20017;-88
2023/01/28 01:06:04;;;;;;;5.35;2.28;;;;;;;;;;5039680;28;20021;-85
2023/01/28 01:08:38;;;;;;;4.30;3.03;;;;;;;;;;5047300;28;20080;-86
2023/01/28 01:11:05;;;;;;;4.28;2.35;;;;;;;;;;5048126;28;20081;-86
2023/01/28 01:13:33;;;;;;;5.20;2.67;;;;;;;;;;5049028;28;20023;-86
2023/01/28 01:16:12;;;;;;;3.78;2.30;;;;;;;;;;5048528;28;20028;-86
2023/01/28 01:18:41;;;;;;;2.53;1.92;;;;;;;;;;5053676;28;20083;-86
2023/01/28 01:21:12;;;;;;;2.80;2.55;;;;;;;;;;5050864;28;20025;-85
2023/01/28 01:23:38;;;;;;;4.45;2.78;;;;;;;;;;5062279;28;20482;-86
2023/01/28 01:26:04;;;;;;;4.78;2.75;;;;;;;;;;5072262;28;20024;-86
2023/01/28 01:28:30;;;;;;;3.95;2.28;;;;;;;;;;5062307;28;20024;-85
2023/01/28 01:31:04;;;;;;;3.70;2.63;;;;;;;;;;5048889;28;20051;-85
2023/01/28 01:33:30;;;;;;;3.30;1.88;;;;;;;;;;5042721;28;20276;-86
2023/01/28 01:35:56;;;;;;;3.03;2.20;;;;;;;;;;5062790;28;20075;-87
2023/01/28 01:38:22;;;;;;;1.88;1.75;;;;;;;;;;5057150;28;20040;-86
2023/01/28 01:40:47;;;;;;;4.28;2.28;;;;;;;;;;5039308;28;20028;-84
2023/01/28 01:43:17;;;;;;;3.65;2.25;;;;;;;;;;5058292;28;20112;-87
2023/01/28 01:45:49;;;;;;;3.25;2.40;;;;;;;;;;5044206;28;20036;-85
2023/01/28 01:48:22;;;;;;;2.13;1.90;;;;;;;;;;5051773;28;20047;-86
2023/01/28 01:51:00;;;;;;;4.05;2.30;;;;;;;;;;5074173;28;20028;-84
2023/01/28 01:53:27;;;;;;;3.65;2.28;;;;;;;;;;5058498;28;20037;-86
2023/01/28 01:55:56;;;;;;;3.33;2.70;;;;;;;;;;5055813;28;20067;-84
2023/01/28 01:58:28;;;;;;;1.98;1.60;;;;;;;;;;5039598;28;20033;-84
2023/01/28 02:00:53;;;;;;;3.08;2.08;;;;;;;;;;5039073;28;20480;-86
2023/01/28 02:03:27;;;;;;;2.92;2.15;;;;;;;;;;5039708;28;20163;-85
2023/01/28 02:05:53;;;;;;;2.15;1.95;;;;;;;;;;5068356;28;20021;-84
2023/01/28 02:08:21;;;;;;;3.33;2.30;;;;;;;;;;5054492;28;20158;-84
2023/01/28 02:10:51;;;;;;;2.53;1.90;;;;;;;;;;5077638;28;20020;-83
2023/01/28 02:13:19;;;;;;;3.72;2.20;;;;;;;;;;5078349;28;20031;-83
2023/01/28 02:15:45;;;;;;;2.58;2.10;;;;;;;;;;5064319;28;20098;-85
2023/01/28 02:18:10;;;;;;;2.33;2.00;;;;;;;;;;5068313;28;20391;-84
2023/01/28 02:21:05;;;;;;;3.67;2.08;;;;;;;;;;5083247;28;20047;-86
2023/01/28 02:23:55;;;;;;;2.92;2.08;;;;;;;;;;5066018;28;20021;-84
2023/01/28 02:26:30;;;;;;;2.80;1.95;;;;;;;;;;5058668;28;20025;-85
2023/01/28 02:29:09;;;;;;;5.30;2.08;;;;;;;;;;5058960;28;20032;-86
2023/01/28 02:32:01;;;;;;;3.10;2.40;;;;;;;;;;5066803;28;20117;-87
2023/01/28 02:34:35;;;;;;;4.05;2.45;;;;;;;;;;5059193;28;20020;-87
2023/01/28 02:37:14;;;;;;;5.78;1.90;;;;;;;;;;5065820;28;20560;-86
2023/01/28 02:39:46;;;;;;;3.78;2.10;;;;;;;;;;5043520;28;20037;-86
2023/01/28 02:42:22;;;;;;;2.13;1.77;;;;;;;;;;5048945;28;20033;-89
2023/01/28 02:44:48;;;;;;;3.72;2.70;;;;;;;;;;5064154;28;20051;-88
2023/01/28 02:50:01;;;;;;;4.68;3.00;;;;;;;;;;5081316;28;20035;-88
2023/01/28 02:55:35;;;;;;;6.00;2.53;;;;;;;;;;5071446;28;20030;-86
2023/01/28 02:58:18;;;;;;;4.22;2.53;;;;;;;;;;5059115;28;20108;-86
2023/01/28 03:00:53;;;;;;;3.60;2.15;;;;;;;;;;5058096;28;20562;-87
2023/01/28 03:03:32;;;;;;;2.63;1.95;;;;;;;;;;5057713;28;20671;-87
2023/01/28 03:06:07;;;;;;;3.85;2.63;;;;;;;;;;5068513;28;20025;-86
2023/01/28 03:39:07;;;;;;;4.60;3.05;;;;;;;;;;5032545;28;20045;-86
2023/01/28 03:41:33;;;;;;;4.28;2.80;;;;;;;;;;5020355;28;20033;-85
2023/01/28 03:46:42;;;;;;;5.38;3.15;;;;;;;;;;5060564;28;20098;-85
2023/01/28 03:49:07;;;;;;;3.03;2.70;;;;;;;;;;5073901;28;20016;-85
2023/01/28 03:51:32;;;;;;;5.38;3.85;;;;;;;;;;5060133;28;20116;-84
2023/01/28 03:53:58;;;;;;;4.47;3.40;;;;;;;;;;5053371;28;20063;-86
2023/01/28 03:56:25;;;;;;;7.20;3.97;;;;;;;;;;5054537;28;20033;-85
2023/01/28 03:58:55;;;;;;;6.28;3.13;;;;;;;;;;5053799;28;20454;-85
2023/01/28 04:01:21;;;;;;;8.57;4.28;;;;;;;;;;5035817;28;20029;-87
2023/01/28 04:03:46;;;;;;;7.85;3.60;;;;;;;;;;5048770;28;20025;-86
2023/01/28 04:06:12;;;;;;;8.00;3.65;;;;;;;;;;5043386;28;20032;-88
2023/01/28 04:08:37;;;;;;;5.95;3.78;;;;;;;;;;5054049;28;20134;-86
2023/01/28 04:11:14;;;;;;;5.07;3.67;;;;;;;;;;5039822;28;20025;-86
2023/01/28 04:13:42;;;;;;;4.55;3.13;;;;;;;;;;5055263;28;20032;-86
2023/01/28 04:16:08;;;;;;;6.03;3.63;;;;;;;;;;5064361;28;20100;-85
2023/01/28 04:18:34;;;;;;;4.95;3.25;;;;;;;;;;5060162;28;20395;-86
2023/01/28 04:20:59;;;;;;;5.88;3.33;;;;;;;;;;5038310;28;20470;-86
2023/01/28 04:23:25;;;;;;;5.03;3.35;;;;;;;;;;5060628;28;20036;-87
2023/01/28 04:25:51;;;;;;;6.13;3.28;;;;;;;;;;5036179;28;20028;-88
2023/01/28 04:28:16;;;;;;;6.10;4.05;;;;;;;;;;5032627;28;20021;-85
2023/01/28 04:30:41;;;;;;;4.80;3.15;;;;;;;;;;5065093;28;20112;-86
2023/01/28 04:33:07;;;;;;;6.18;3.10;;;;;;;;;;5054297;28;20036;-86
2023/01/28 04:35:32;;;;;;;4.82;3.47;;;;;;;;;;5061814;28;20526;-85
2023/01/28 04:37:57;;;;;;;4.22;3.38;;;;;;;;;;5057160;28;20484;-87
2023/01/28 04:40:23;;;;;;;5.65;3.53;;;;;;;;;;5049860;28;20029;-86
2023/01/28 04:42:53;;;;;;;5.55;3.05;;;;;;;;;;5059737;28;20041;-85
2023/01/28 04:45:18;;;;;;;7.45;3.17;;;;;;;;;;5067574;28;20047;-85
2023/01/28 04:47:44;;;;;;;5.78;3.13;;;;;;;;;;5062467;28;20029;-86
2023/01/28 04:50:09;;;;;;;6.55;3.22;;;;;;;;;;5072964;28;20099;-83
2023/01/28 04:52:34;;;;;;;6.85;2.92;;;;;;;;;;5067494;28;20028;-85
2023/01/28 04:55:01;;;;;;;4.40;3.10;;;;;;;;;;5038920;28;20036;-84
2023/01/28 04:57:26;;;;;;;3.97;2.65;;;;;;;;;;5060454;28;20029;-85
2023/01/28 04:59:51;;;;;;;4.10;3.03;;;;;;;;;;5051745;28;20036;-85
2023/01/28 05:02:20;;;;;;;5.15;3.08;;;;;;;;;;5042562;28;20044;-85
2023/01/28 05:04:45;;;;;;;4.05;3.03;;;;;;;;;;5038637;28;20029;-86
2023/01/28 05:07:11;;;;;;;6.30;3.10;;;;;;;;;;5059634;28;20040;-85
2023/01/28 05:09:36;;;;;;;3.22;2.42;;;;;;;;;;5057261;28;20028;-83
2023/01/28 05:12:02;;;;;;;4.80;2.85;;;;;;;;;;5058451;28;20029;-85
2023/01/28 05:14:27;;;;;;;7.30;3.08;;;;;;;;;;5041543;28;20128;-86
2023/01/28 05:16:53;;;;;;;4.82;3.42;;;;;;;;;;5064278;28;20249;-85
2023/01/28 05:19:18;;;;;;;7.72;3.75;;;;;;;;;;5071660;28;20040;-86
2023/01/28 05:21:43;;;;;;;4.63;2.88;;;;;;;;;;5058622;28;20055;-87
2023/01/28 05:24:09;;;;;;;5.43;3.10;;;;;;;;;;5055975;28;20032;-84
2023/01/28 05:26:36;;;;;;;4.13;2.95;;;;;;;;;;5060851;28;20095;-87
2023/01/28 05:29:01;;;;;;;7.25;3.50;;;;;;;;;;5052957;28;20386;-86
2023/01/28 05:31:26;;;;;;;5.28;2.95;;;;;;;;;;5059740;28;20029;-86
2023/01/28 05:33:52;;;;;;;5.28;3.10;;;;;;;;;;5063005;28;20040;-86
2023/01/28 05:36:17;;;;;;;5.03;2.92;;;;;;;;;;5062060;28;20029;-86
2023/01/28 05:38:43;;;;;;;6.85;3.25;;;;;;;;;;5053537;28;20573;-86
2023/01/28 05:41:08;;;;;;;5.28;3.28;;;;;;;;;;5056811;28;20024;-86
2023/01/28 05:43:33;;;;;;;6.00;3.00;;;;;;;;;;5059570;28;20309;-87
2023/01/28 05:45:59;;;;;;;6.07;4.00;;;;;;;;;;5066684;28;20033;-86
2023/01/28 05:48:24;;;;;;;5.15;3.05;;;;;;;;;;5053542;28;20040;-84
2023/01/28 05:50:49;;;;;;;4.47;3.22;;;;;;;;;;5059396;28;20094;-88
2023/01/28 05:53:15;;;;;;;5.68;3.63;;;;;;;;;;5077651;22;20037;-81
2023/01/28 05:55:40;;;;;;;4.90;3.22;;;;;;;;;;5073053;28;20025;-84
2023/01/28 05:58:05;;;;;;;5.82;3.75;;;;;;;;;;5057708;28;20095;-82
2023/01/28 06:00:31;;;;;;;7.57;3.85;;;;;;;;;;5063941;28;20478;-84
2023/01/28 06:02:56;;;;;;;5.07;2.88;;;;;;;;;;5058781;28;20459;-84
2023/01/28 06:05:22;;;;;;;5.05;3.45;;;;;;;;;;5057937;28;20294;-85
2023/01/28 06:07:47;;;;;;;7.25;4.00;;;;;;;;;;5038265;28;20029;-83
2023/01/28 06:10:16;;;;;;;8.82;3.58;;;;;;;;;;5038671;28;20029;-88
2023/01/28 06:12:42;;;;;;;6.75;3.63;;;;;;;;;;5055486;28;20020;-82
2023/01/28 06:15:08;;;;;;;6.93;4.00;;;;;;;;;;5036051;28;20057;-81
2023/01/28 06:17:33;;;;;;;8.50;4.25;;;;;;;;;;5052136;28;20047;-86
2023/01/28 06:19:59;;;;;;;4.80;3.47;;;;;;;;;;5036833;28;20475;-86
2023/01/28 06:22:24;;;;;;;7.80;4.25;;;;;;;;;;5054124;28;20021;-84
2023/01/28 06:24:49;;;;;;;4.65;3.33;;;;;;;;;;5062702;28;20490;-85
2023/01/28 06:27:15;;;;;;;5.90;3.33;;;;;;;;;;5035909;28;20052;-84
2023/01/28 06:29:40;;;;;;;7.75;4.10;;;;;;;;;;5062548;28;20165;-84
2023/01/28 06:32:05;;;;;;;5.03;2.95;;;;;;;;;;5036057;28;20029;-85
2023/01/28 06:34:31;;;;;;;6.68;3.78;;;;;;;;;;5038065;28;20078;-87
2023/01/28 06:36:56;;;;;;;7.65;4.40;;;;;;;;;;5037016;28;20386;-85
2023/01/28 06:39:22;;;;;;;5.43;3.78;;;;;;;;;;5055653;28;20029;-85
2023/01/28 06:41:48;;;;;;;9.18;4.15;;;;;;;;;;5042125;28;20029;-85
2023/01/28 06:44:14;;;;;;;6.28;3.80;;;;;;;;;;5051134;28;20082;-86
2023/01/28 06:46:39;;;;;;;4.68;3.42;;;;;;;;;;5047938;28;20029;-83
2023/01/28 06:49:05;;;;;;;18.30;3.67;;;;;;;;;;5059396;28;20024;-85
2023/01/28 06:51:30;;;;;;;5.85;3.75;;;;;;;;;;5048304;28;20024;-86
2023/01/28 06:53:55;;;;;;;8.35;4.60;;;;;;;;;;5070013;28;20032;-85
2023/01/28 06:56:21;;;;;;;6.43;3.70;;;;;;;;;;5053022;28;20547;-83
2023/01/28 06:58:46;;;;;;;4.38;3.38;;;;;;;;;;5054464;28;20156;-86
2023/01/28 07:01:11;;;;;;;5.88;3.67;;;;;;;;;;5054976;28;20367;-85
2023/01/28 07:03:37;;;;;;;8.10;4.07;;;;;;;;;;5054931;28;20037;-85
2023/01/28 07:06:02;;;;;;;5.07;3.72;;;;;;;;;;5076236;28;20020;-86
2023/01/28 07:08:28;;;;;;;5.68;3.63;;;;;;;;;;5042445;28;20044;-86
2023/01/28 07:10:53;;;;;;;5.45;3.90;;;;;;;;;;5038321;28;20090;-86
2023/01/28 07:13:18;;;;;;;7.13;4.38;;;;;;;;;;5038004;28;20056;-84
2023/01/28 07:15:44;;;;;;;6.25;4.35;;;;;;;;;;5057475;28;20021;-85
2023/01/28 07:18:09;;;;;;;6.80;4.13;;;;;;;;;;5043023;28;20032;-84
2023/01/28 07:20:34;;;;;;;7.72;3.60;;;;;;;;;;5045736;28;20076;-84
2023/01/28 07:23:00;;;;;;;8.38;4.35;;;;;;;;;;5047175;28;20021;-87
2023/01/28 07:25:25;;;;;;;9.68;4.93;;;;;;;;;;5061457;28;20466;-85
2023/01/28 07:27:52;;;;;;;5.97;3.78;;;;;;;;;;5069294;28;20020;-86
2023/01/28 07:30:19;;;;;;;5.05;3.08;;;;;;;;;;5059780;28;20021;-87
2023/01/28 07:32:45;;;;;;;5.95;3.90;;;;;;;;;;5049332;28;20025;-86
2023/01/28 07:35:12;;;;;;;6.72;4.05;;;;;;;;;;5042709;28;20030;-86
2023/01/28 07:37:38;;;;;;;6.80;4.05;;;;;;;;;;5034260;28;20117;-86
2023/01/28 07:40:04;;;;;;;7.00;3.97;;;;;;;;;;5017885;28;20056;-87
2023/01/28 07:42:29;;;;;;;6.03;3.42;;;;;;;;;;5041471;28;20029;-88
2023/01/28 07:44:54;;;;;;;7.50;4.60;;;;;;;;;;5037549;28;20028;-84
2023/01/28 07:47:20;;;;;;;8.20;4.10;;;;;;;;;;5039803;28;20054;-86
2023/01/28 07:49:46;;;;;;;6.45;4.05;;;;;;;;;;5066389;28;20028;-85
2023/01/28 07:52:11;;;;;;;7.97;4.53;;;;;;;;;;5025596;28;20044;-85
2023/01/28 07:54:37;;;;;;;6.38;4.43;;;;;;;;;;5044745;28;20024;-85
2023/01/28 07:57:14;;;;;;;9.85;5.00;;;;;;;;;;5057066;28;20035;-85
2023/01/28 07:59:39;;;;;;;5.20;4.32;;;;;;;;;;5059187;28;20025;-85
2023/01/28 08:02:05;;;;;;;5.18;3.40;;;;;;;;;;5055827;28;20029;-85
2023/01/28 08:04:30;;;;;;;6.68;4.07;;;;;;;;;;5057152;28;20063;-85
2023/01/28 08:06:56;;;;;;;6.72;4.07;;;;;;;;;;5047403;28;20032;-86
2023/01/28 08:09:21;;;;;;;9.23;4.78;;;;;;;;;;5031580;28;20491;-85
2023/01/28 08:11:46;;;;;;;6.85;3.90;;;;;;;;;;5027528;28;20083;-84
2023/01/28 08:14:12;;;;;;;7.97;4.38;;;;;;;;;;5052751;28;20029;-85
2023/01/28 08:16:37;;;;;;;14.52;5.40;;;;;;;;;;5051884;28;20090;-85
2023/01/28 08:19:02;;;;;;;9.27;4.93;;;;;;;;;;5043450;28;20116;-84
2023/01/28 08:21:28;;;;;;;7.72;4.43;;;;;;;;;;5036256;28;20025;-85
2023/01/28 08:23:54;;;;;;;6.72;4.05;;;;;;;;;;5037918;28;20032;-86
2023/01/28 08:26:19;;;;;;;7.38;4.38;;;;;;;;;;5042291;28;20577;-84
2023/01/28 08:28:47;;;;;;;9.07;4.50;;;;;;;;;;5053920;28;20021;-83
2023/01/28 08:31:13;;;;;;;10.25;5.50;;;;;;;;;;5059033;28;20494;-85
2023/01/28 08:33:38;;;;;;;8.07;4.38;;;;;;;;;;5038740;28;20032;-85
2023/01/28 08:36:04;;;;;;;6.88;4.05;;;;;;;;;;5066219;28;20012;-85
2023/01/28 08:38:29;;;;;;;6.82;4.15;;;;;;;;;;5055928;28;20032;-85
2023/01/28 08:40:56;;;;;;;6.82;4.78;;;;;;;;;;5051755;28;20031;-85
2023/01/28 08:43:22;;;;;;;8.90;4.65;;;;;;;;;;5040309;28;20510;-84
2023/01/28 08:45:47;;;;;;;7.28;4.53;;;;;;;;;;5037557;28;20063;-85
2023/01/28 08:48:18;;;;;;;7.85;5.18;;;;;;;;;;5062117;28;20108;-84
2023/01/28 08:50:44;;;;;;;8.75;4.50;;;;;;;;;;5046561;28;20040;-84
2023/01/28 08:53:15;;;;;;;11.38;5.65;;;;;;;;;;5053323;28;20107;-83
2023/01/28 08:55:40;;;;;;;9.40;4.93;;;;;;;;;;5055038;28;20017;-86
2023/01/28 08:58:10;;;;;;;7.75;4.47;;;;;;;;;;5047471;28;20095;-84
2023/01/28 09:00:35;;;;;;;10.07;4.72;;;;;;;;;;5043876;28;20031;-84
2023/01/28 09:03:01;;;;;;;8.13;5.60;;;;;;;;;;5035800;28;20115;-85
2023/01/28 09:05:27;;;;;;;7.40;4.85;;;;;;;;;;5054814;28;20037;-85
2023/01/28 09:07:52;;;;;;;8.70;5.50;;;;;;;;;;5051986;28;20086;-83
2023/01/28 09:10:19;;;;;;;8.00;4.85;;;;;;;;;;5036833;28;20029;-84
2023/01/28 09:12:44;;;;;;;10.20;4.32;;;;;;;;;;5051260;28;20447;-84
2023/01/28 09:15:10;;;;;;;9.18;4.88;;;;;;;;;;5036272;28;20017;-83
2023/01/28 09:17:35;;;;;;;9.05;4.78;;;;;;;;;;5036011;28;20037;-85
2023/01/28 09:20:01;;;;;;;13.70;5.18;;;;;;;;;;5041784;28;20092;-81
2023/01/28 09:22:26;;;;;;;9.23;4.82;;;;;;;;;;5025533;28;20124;-86
2023/01/28 09:24:51;;;;;;;9.73;5.28;;;;;;;;;;5065134;28;20024;-86
2023/01/28 09:27:17;;;;;;;8.68;5.00;;;;;;;;;;5060785;28;20044;-84
2023/01/28 09:29:42;;;;;;;6.90;4.68;;;;;;;;;;5061562;28;20033;-84
2023/01/28 09:32:08;;;;;;;12.77;6.20;;;;;;;;;;5058687;28;20041;-85
2023/01/28 09:34:33;;;;;;;12.52;5.68;;;;;;;;;;5065619;28;20450;-85
2023/01/28 09:36:58;;;;;;;8.18;4.93;;;;;;;;;;5046647;28;20047;-85
2023/01/28 09:39:27;;;;;;;7.88;5.25;;;;;;;;;;5040146;28;20021;-84
2023/01/28 09:42:49;;;;;;;10.02;5.63;;;;;;;;;;5056230;28;20056;-85
2023/01/28 09:45:29;;;;;;;8.57;5.38;;;;;;;;;;4973843;28;20023;-86
2023/01/28 09:47:57;;;;;;;11.63;5.65;;;;;;;;;;4957721;28;20054;-84
2023/01/28 09:50:38;;;;;;;10.90;6.13;;;;;;;;;;5017574;28;20486;-86
2023/01/28 09:53:15;;;;;;;8.98;5.95;;;;;;;;;;5035015;28;20117;-85
2023/01/28 09:55:50;;;;;;;8.43;5.07;;;;;;;;;;5051056;28;20020;-85
2023/01/28 09:58:16;;;;;;;8.07;4.72;;;;;;;;;;5061952;28;20041;-85
2023/01/28 10:00:44;;;;;;;12.98;5.72;;;;;;;;;;5066079;28;20162;-85
2023/01/28 10:03:16;;;;;;;11.85;5.47;;;;;;;;;;5049443;28;20039;-85
2023/01/28 10:05:57;;;;;;;10.05;5.65;;;;;;;;;;5056601;28;20024;-85
2023/01/28 10:08:41;;;;;;;10.60;5.65;;;;;;;;;;5043280;28;20025;-85
2023/01/28 10:11:24;;;;;;;10.30;5.20;;;;;;;;;;5058930;28;20025;-85
2023/01/28 10:14:16;;;;;;;11.27;6.53;;;;;;;;;;5065802;28;20028;-85
2023/01/28 10:16:49;;;;;;;10.48;6.03;;;;;;;;;;5031138;28;20110;-85
2023/01/28 10:19:23;;;;;;;12.07;5.47;;;;;;;;;;5056735;28;20013;-84
2023/01/28 10:21:57;;;;;;;11.05;5.32;;;;;;;;;;5074903;28;20039;-84
2023/01/28 10:24:54;;;;;;;11.77;5.97;;;;;;;;;;5056966;28;20021;-85
2023/01/28 10:27:22;;;;;;;9.50;5.50;;;;;;;;;;5058142;28;20483;-86
2023/01/28 10:29:49;;;;;;;9.55;4.95;;;;;;;;;;5042216;28;20025;-86
2023/01/28 10:32:28;;;;;;;12.40;5.97;;;;;;;;;;5070921;28;20035;-84
2023/01/28 10:34:55;;;;;;;12.52;6.18;;;;;;;;;;5043786;28;20227;-86
2023/01/28 10:37:20;;;;;;;11.90;5.97;;;;;;;;;;5069302;28;20035;-86
2023/01/28 10:39:46;;;;;;;18.02;6.18;;;;;;;;;;5058238;28;20020;-86
2023/01/28 10:42:28;;;;;;;10.55;6.28;;;;;;;;;;5039260;28;20025;-86
2023/01/28 10:44:58;;;;;;;10.25;5.35;;;;;;;;;;5039777;28;20028;-86
2023/01/28 10:47:41;;;;;;;12.00;6.38;;;;;;;;;;5038896;28;20131;-86
2023/01/28 10:50:16;;;;;;;14.73;5.75;;;;;;;;;;5061156;28;20024;-87
2023/01/28 10:53:03;;;;;;;11.95;5.43;;;;;;;;;;5059688;28;20082;-85
2023/01/28 10:55:35;;;;;;;10.13;5.70;;;;;;;;;;5059700;28;20032;-85
2023/01/28 10:58:03;;;;;;;9.52;6.05;;;;;;;;;;5059009;28;20424;-86
2023/01/28 11:00:35;;;;;;;11.13;5.47;;;;;;;;;;5077081;28;20020;-86
2023/01/28 11:03:01;;;;;;;8.70;5.25;;;;;;;;;;5077797;28;20454;-86
2023/01/28 11:05:29;;;;;;;9.40;5.53;;;;;;;;;;5052186;28;20063;-86
2023/01/28 11:08:15;;;;;;;10.65;5.85;;;;;;;;;;5049950;28;20105;-85
2023/01/28 11:10:41;;;;;;;9.30;5.22;;;;;;;;;;5040393;28;20418;-85
2023/01/28 11:13:20;;;;;;;7.45;5.03;;;;;;;;;;5038753;28;20024;-86
2023/01/28 11:15:53;;;;;;;9.77;5.50;;;;;;;;;;5057280;28;20356;-85
2023/01/28 11:18:25;;;;;;;10.50;5.30;;;;;;;;;;5038937;28;20526;-85
2023/01/28 11:20:57;;;;;;;10.00;6.28;;;;;;;;;;5043059;28;20444;-86
2023/01/28 11:23:26;;;;;;;8.48;5.57;;;;;;;;;;5036992;28;20211;-85
2023/01/28 11:26:01;;;;;;;10.27;5.55;;;;;;;;;;5058889;28;20031;-86
2023/01/28 11:28:27;;;;;;;10.55;5.63;;;;;;;;;;5029358;28;20083;-85
2023/01/28 11:30:55;;;;;;;7.80;5.55;;;;;;;;;;5036121;28;20025;-86
2023/01/28 11:33:35;;;;;;;9.95;5.72;;;;;;;;;;5054394;28;20485;-84
2023/01/28 11:36:11;;;;;;;12.65;5.75;;;;;;;;;;5047125;28;20021;-86
2023/01/28 11:39:06;;;;;;;9.75;5.07;;;;;;;;;;5043761;28;20137;-84
2023/01/28 11:41:37;;;;;;;7.95;5.10;;;;;;;;;;5012888;28;20059;-84
2023/01/28 11:44:29;;;;;;;10.70;5.43;;;;;;;;;;5031428;28;20028;-85
2023/01/28 11:47:03;;;;;;;10.55;4.80;;;;;;;;;;5026795;28;20029;-83
2023/01/28 11:49:35;;;;;;;10.90;5.43;;;;;;;;;;5052945;28;20047;-82
2023/01/28 11:52:04;;;;;;;;;;;;;;;;;;5051748;28;20455;-82
2023/01/28 11:55:17;;;;;;;12.05;4.97;;;;;;;;;;5053888;28;19963;-82
2023/01/28 11:58:16;;;;;;;11.85;5.05;;;;;;;;;;4986564;28;20046;-82
2023/01/28 12:00:51;;;;;;;11.10;6.32;;;;;;;;;;5021820;28;20376;-83
2023/01/28 12:03:41;;;;;;;10.65;6.05;;;;;;;;;;5044999;28;20032;-83
2023/01/28 12:06:41;;;;;;;9.50;5.30;;;;;;;;;;5027860;28;20124;-84
2023/01/28 12:09:28;;;;;;;12.07;5.82;;;;;;;;;;5020433;28;20047;-83
2023/01/28 12:12:11;;;;;;;9.52;5.60;;;;;;;;;;5027940;28;20533;-83
2023/01/28 12:15:01;;;;;;;12.98;5.88;;;;;;;;;;5043410;28;20044;-84
2023/01/28 12:17:26;;;;;;;7.82;5.15;;;;;;;;;;5032602;28;20020;-85
2023/01/28 12:20:05;;;;;;;8.80;4.80;;;;;;;;;;5054207;28;20089;-84
2023/01/28 12:22:49;;;;;;;8.50;4.25;;;;;;;;;;5029351;28;20064;-85
2023/01/28 12:25:26;;;;;;;7.90;4.25;;;;;;;;;;5036857;28;20025;-85
2023/01/28 12:28:17;;;;;;;6.68;3.72;;;;;;;;;;5029923;28;20021;-84
2023/01/28 12:30:54;;;;;;;8.07;4.47;;;;;;;;;;5026986;28;20061;-85
2023/01/28 12:33:38;;;;;;;11.00;3.25;;;;;;;;;;5044900;28;20033;-84
2023/01/28 12:36:07;;;;;;;6.07;4.20;;;;;;;;;;5024287;28;20151;-80
2023/01/28 12:38:47;;;;;;;9.13;4.05;;;;;;;;;;5047192;28;20029;-81
2023/01/28 12:41:20;;;;;;;5.68;3.83;;;;;;;;;;5048052;28;20045;-81
2023/01/28 12:43:52;;;;;;;6.03;3.60;;;;;;;;;;5049503;28;20024;-82
2023/01/28 12:46:24;;;;;;;;;;;;;;;;;;5045769;28;20025;-81
2023/01/28 12:48:57;;;;;;;2.72;2.10;;;;;;;;;;5029369;28;19927;-80
2023/01/28 12:51:29;;;;;;;4.13;3.00;;;;;;;;;;5046966;28;20392;-81
2023/01/28 12:54:02;;;;;;;4.47;3.67;;;;;;;;;;5029263;28;20037;-80
2023/01/28 12:56:35;;;;;;;4.55;3.13;;;;;;;;;;5046148;28;20817;-81
2023/01/28 12:59:11;;;;;;;7.18;3.72;;;;;;;;;;5021352;28;20040;-82
2023/01/28 13:01:41;;;;;;;8.55;4.55;;;;;;;;;;5026820;28;20025;-81
2023/01/28 13:04:28;;;;;;;7.00;3.97;;;;;;;;;;5023756;28;20037;-82
2023/01/28 13:07:06;;;;;;;9.90;4.80;;;;;;;;;;5037741;28;20045;-81
2023/01/28 13:09:35;;;;;;;5.85;4.03;;;;;;;;;;5039132;28;20032;-82
2023/01/28 13:12:02;;;;;;;8.93;6.18;;;;;;;;;;5039037;28;20114;-81
2023/01/28 13:14:30;;;;;;;6.78;4.40;;;;;;;;;;5032595;28;20211;-80
2023/01/28 13:17:08;;;;;;;7.15;4.93;;;;;;;;;;5034951;28;20045;-79
2023/01/28 13:19:39;;;;;;;8.40;4.78;;;;;;;;;;5033522;28;20445;-80
2023/01/28 13:22:24;;;;;;;7.05;5.82;;;;;;;;;;5028699;28;20495;-81
2023/01/28 13:24:49;;;;;;;9.85;5.25;;;;;;;;;;5028223;28;20163;-81
2023/01/28 13:27:23;;;;;;;8.18;4.15;;;;;;;;;;5030342;28;20673;-81
2023/01/28 13:30:04;;;;;;;9.73;4.63;;;;;;;;;;5010808;28;20036;-80
2023/01/28 13:32:34;;;;;;;8.43;4.15;;;;;;;;;;5025883;28;20067;-81
2023/01/28 13:35:06;;;;;;;4.50;3.38;;;;;;;;;;5027643;28;20044;-82
2023/01/28 13:37:43;;;;;;;7.03;4.18;;;;;;;;;;5029146;28;20025;-83
2023/01/28 13:40:29;;;;;;;7.47;5.05;;;;;;;;;;5016151;28;20044;-81
2023/01/28 13:43:23;;;;;;;8.13;4.88;;;;;;;;;;5025027;28;20037;-80
2023/01/28 13:46:00;;;;;;;7.38;4.80;;;;;;;;;;5011912;28;21776;-81
2023/01/28 13:48:31;;;;;;;7.38;4.22;;;;;;;;;;5021239;28;20516;-81
2023/01/28 13:50:58;;;;;;;7.78;4.93;;;;;;;;;;5030301;28;20037;-81
2023/01/28 13:53:57;;;;;;;10.40;5.78;;;;;;;;;;5030122;28;20017;-81
2023/01/28 13:56:28;;;;;;;7.18;4.30;;;;;;;;;;5014784;28;20039;-81
2023/01/28 13:59:10;;;;;;;8.38;5.13;;;;;;;;;;5040180;28;20126;-81
2023/01/28 14:01:45;;;;;;;7.55;4.40;;;;;;;;;;5038834;28;20029;-81
2023/01/28 14:04:48;;;;;;;7.88;4.72;;;;;;;;;;5030015;28;20467;-81
2023/01/28 14:07:44;;;;;;;11.93;4.65;;;;;;;;;;5050155;28;20677;-81
2023/01/28 14:10:39;;;;;;;8.65;3.60;;;;;;;;;;5057084;28;20035;-81
2023/01/28 14:13:04;;;;;;;6.68;3.95;;;;;;;;;;5055641;28;20032;-81
2023/01/28 14:15:47;;;;;;;7.20;3.72;;;;;;;;;;5056373;28;20025;-82
2023/01/28 14:18:23;;;;;;;7.10;3.70;;;;;;;;;;5056331;28;20082;-81
2023/01/28 14:20:49;;;;;;;6.15;4.63;;;;;;;;;;5056554;28;20035;-81
2023/01/28 14:23:23;;;;;;;6.55;4.07;;;;;;;;;;5056566;28;20047;-82
2023/01/28 14:26:10;;;;;;;5.47;3.75;;;;;;;;;;5056189;28;20055;-81
2023/01/28 14:28:38;;;;;;;7.25;3.85;;;;;;;;;;5056216;28;20029;-82
2023/01/28 14:31:18;;;;;;;6.75;4.55;;;;;;;;;;5055434;28;20051;-81
2023/01/28 14:33:44;;;;;;;10.25;4.68;;;;;;;;;;5037974;28;20040;-81
2023/01/28 14:36:11;;;;;;;6.88;3.70;;;;;;;;;;5058323;28;20031;-81
2023/01/28 14:38:40;;;;;;;7.32;4.78;;;;;;;;;;5055792;28;20024;-80
2023/01/28 14:41:07;;;;;;;6.35;3.90;;;;;;;;;;5044950;28;20051;-81
2023/01/28 14:43:33;;;;;;;6.15;3.97;;;;;;;;;;5038096;28;20164;-81
2023/01/28 14:46:16;;;;;;;5.43;3.47;;;;;;;;;;5021984;28;20054;-81
2023/01/28 14:49:11;;;;;;;4.20;3.50;;;;;;;;;;5038468;28;20108;-82
2023/01/28 14:51:55;;;;;;;4.55;2.60;;;;;;;;;;5040104;28;20029;-81
2023/01/28 14:54:44;;;;;;;6.90;4.18;;;;;;;;;;5043209;28;20037;-81
2023/01/28 14:57:24;;;;;;;5.00;3.35;;;;;;;;;;5027415;28;20416;-80
2023/01/28 14:59:53;;;;;;;8.38;3.35;;;;;;;;;;5044314;28;21411;-81
2023/01/28 15:02:20;;;;;;;5.20;2.72;;;;;;;;;;5038066;28;20060;-81
2023/01/28 15:04:46;;;;;;;4.78;3.25;;;;;;;;;;5034837;28;20493;-81
2023/01/28 15:07:22;;;;;;;5.13;2.72;;;;;;;;;;5044114;28;20061;-81
2023/01/28 15:10:19;;;;;;;6.60;2.88;;;;;;;;;;5026660;28;20075;-83
2023/01/28 15:12:55;;;;;;;3.25;2.72;;;;;;;;;;5037682;28;20041;-82
2023/01/28 15:15:35;;;;;;;3.97;2.90;;;;;;;;;;5039309;28;20116;-81
2023/01/28 15:18:18;;;;;;;4.55;2.83;;;;;;;;;;5041158;28;20040;-81
2023/01/28 15:20:49;;;;;;;3.78;3.05;;;;;;;;;;5035192;28;20028;-82
2023/01/28 15:23:17;;;;;;;6.35;3.55;;;;;;;;;;5037777;28;20025;-81
2023/01/28 15:25:43;;;;;;;3.67;2.95;;;;;;;;;;5044427;28;20056;-82
2023/01/28 15:28:18;;;;;;;5.50;3.17;;;;;;;;;;5045907;28;20061;-81
2023/01/28 15:30:44;;;;;;;7.35;3.47;;;;;;;;;;5045038;28;20024;-81
2023/01/28 15:33:18;;;;;;;3.65;3.10;;;;;;;;;;5041518;28;20025;-81
2023/01/28 15:35:48;;;;;;;5.15;3.33;;;;;;;;;;5047267;28;20028;-80
2023/01/28 15:38:16;;;;;;;4.47;2.90;;;;;;;;;;5044014;28;20175;-82
2023/01/28 15:40:43;;;;;;;3.13;2.58;;;;;;;;;;5040601;28;21318;-82
2023/01/28 15:43:21;;;;;;;4.38;3.05;;;;;;;;;;5045587;28;20463;-81